createdAt,value
2023-02-08T00:02:45.951Z,18.52
2023-02-08T00:07:51.010Z,17.70
2023-02-08T00:12:55.244Z,14.80
2023-02-08T00:17:58.975Z,13.02
2023-02-08T00:23:04.058Z,18.35
2023-02-08T00:28:09.563Z,17.85
2023-02-08T00:33:13.654Z,15.27
2023-02-08T00:38:18.692Z,11.68
2023-02-08T00:43:23.051Z,18.92
2023-02-08T00:48:27.438Z,14.25
2023-02-08T00:53:32.588Z,15.07
2023-02-08T00:58:36.791Z,17.15
2023-02-08T01:03:42.565Z,14.38
2023-02-08T01:08:50.130Z,15.48
2023-02-08T01:13:57.475Z,14.70
2023-02-08T01:19:02.700Z,12.05
2023-02-08T01:24:08.448Z,15.80
2023-02-08T01:29:12.201Z,12.55
2023-02-08T01:34:15.921Z,13.07
2023-02-08T01:39:21.668Z,10.45
2023-02-08T01:45:02.435Z,12.25
2023-02-08T01:50:06.627Z,13.70
2023-02-08T01:55:16.809Z,10.52
2023-02-08T02:00:24.546Z,14.57
2023-02-08T02:05:32.374Z,12.73
2023-02-08T02:10:39.978Z,13.15
2023-02-08T02:15:46.074Z,15.55
2023-02-08T02:21:04.222Z,11.25
2023-02-08T02:26:42.074Z,16.45
2023-02-08T02:31:58.666Z,12.27
2023-02-08T02:37:12.806Z,13.40
2023-02-08T02:42:42.067Z,12.02
2023-02-08T02:47:55.935Z,11.30
2023-02-08T02:53:05.441Z,12.57
2023-02-08T02:58:13.231Z,16.85
2023-02-08T03:03:23.247Z,13.32
2023-02-08T03:08:50.263Z,14.25
2023-02-08T03:14:09.838Z,14.73
2023-02-08T03:19:21.604Z,12.63
2023-02-08T03:24:29.798Z,16.30
2023-02-08T03:29:42.929Z,11.00
2023-02-08T03:34:54.287Z,12.25
2023-02-08T03:40:04.566Z,11.70
2023-02-08T03:45:15.954Z,10.13
2023-02-08T03:50:23.442Z,11.15
2023-02-08T03:55:30.907Z,12.25
2023-02-08T04:00:40.071Z,10.27
2023-02-08T04:05:45.962Z,12.73
2023-02-08T04:10:50.123Z,12.77
2023-02-08T04:15:54.013Z,10.75
2023-02-08T04:20:59.171Z,12.88
2023-02-08T04:26:04.120Z,12.27
2023-02-08T04:31:07.862Z,12.00
2023-02-08T04:36:13.101Z,14.25
2023-02-08T04:41:16.848Z,9.93
2023-02-08T04:46:20.769Z,11.25
2023-02-08T04:51:25.839Z,13.13
2023-02-08T04:56:29.558Z,10.93
2023-02-08T05:01:33.479Z,9.32
2023-02-08T05:06:38.621Z,14.65
2023-02-08T05:11:42.614Z,11.70
2023-02-08T05:16:46.333Z,9.30
2023-02-08T05:21:51.764Z,12.63
2023-02-08T05:26:55.501Z,10.88
2023-02-08T05:31:59.324Z,10.23
2023-02-08T05:37:04.439Z,10.93
2023-02-08T05:42:08.427Z,13.88
2023-02-08T05:47:12.105Z,8.18
2023-02-08T05:52:17.137Z,13.90
2023-02-08T05:57:23.647Z,9.30
2023-02-08T06:02:27.565Z,12.82
2023-02-08T06:07:32.914Z,11.63
2023-02-08T06:12:36.631Z,12.35
2023-02-08T06:17:40.460Z,11.55
2023-02-08T06:22:45.564Z,9.57
2023-02-08T06:27:49.376Z,12.90
2023-02-08T06:32:53.622Z,10.05
2023-02-08T06:37:58.940Z,10.55
2023-02-08T06:43:02.664Z,11.88
2023-02-08T06:48:06.831Z,12.43
2023-02-08T06:53:11.867Z,9.73
2023-02-08T06:58:15.548Z,10.70
2023-02-08T07:03:19.226Z,8.32
2023-02-08T07:08:24.359Z,11.55
2023-02-08T07:13:28.073Z,10.60
2023-02-08T07:18:31.795Z,17.25
2023-02-08T07:23:36.961Z,12.48
2023-02-08T07:28:40.810Z,13.68
2023-02-08T07:33:45.300Z,12.38
2023-02-08T07:38:50.363Z,10.90
2023-02-08T07:43:56.021Z,12.40
2023-02-08T07:48:59.911Z,10.82
2023-02-08T07:54:05.169Z,11.38
2023-02-08T07:59:08.939Z,11.88
2023-02-08T08:04:12.800Z,16.50
2023-02-08T08:09:18.016Z,10.98
2023-02-08T08:14:21.788Z,12.80
2023-02-08T08:19:25.610Z,10.77
2023-02-08T08:24:31.760Z,11.23
2023-02-08T08:29:37.038Z,15.70
2023-02-08T08:34:40.934Z,10.88
2023-02-08T08:39:46.044Z,11.18
2023-02-08T08:44:49.778Z,20.75
2023-02-08T08:49:53.467Z,14.77
2023-02-08T08:54:58.597Z,10.70
2023-02-08T09:00:02.578Z,14.32
2023-02-08T09:05:08.093Z,13.63
2023-02-08T09:10:13.179Z,11.68
2023-02-08T09:15:16.934Z,14.35
2023-02-08T09:20:21.646Z,15.70
2023-02-08T09:25:27.219Z,11.70
2023-02-08T09:30:30.899Z,9.02
2023-02-08T09:35:34.594Z,9.52
2023-02-08T09:40:50.516Z,12.05
2023-02-08T09:46:01.045Z,8.43
2023-02-08T09:51:10.006Z,11.70
2023-02-08T09:56:20.729Z,12.63
2023-02-08T10:01:27.972Z,10.90
2023-02-08T10:06:32.160Z,12.90
2023-02-08T10:11:47.074Z,9.98
2023-02-08T10:17:03.463Z,11.27
2023-02-08T10:22:20.099Z,11.02
2023-02-08T10:27:32.705Z,9.25
2023-02-08T10:32:46.114Z,9.70
2023-02-08T10:37:49.842Z,8.18
2023-02-08T10:43:01.855Z,7.82
2023-02-08T10:48:10.476Z,7.55
2023-02-08T10:53:17.011Z,9.65
2023-02-08T10:58:26.171Z,12.77
2023-02-08T11:03:31.151Z,9.50
2023-02-08T11:08:54.838Z,8.65
2023-02-08T11:14:10.425Z,7.70
2023-02-08T11:19:23.587Z,6.35
2023-02-08T11:24:31.075Z,7.18
2023-02-08T11:29:36.125Z,9.10
2023-02-08T11:34:40.499Z,8.95
2023-02-08T11:39:49.783Z,8.77
2023-02-08T11:44:56.420Z,8.15
2023-02-08T11:50:03.086Z,8.48
2023-02-08T11:55:25.029Z,8.77
2023-02-08T12:00:34.111Z,10.88
2023-02-08T12:05:45.764Z,5.75
2023-02-08T12:11:13.506Z,6.88
2023-02-08T12:16:37.143Z,5.93
2023-02-08T12:21:44.642Z,7.38
2023-02-08T12:27:06.043Z,4.57
2023-02-08T12:32:38.633Z,4.10
2023-02-08T12:38:04.543Z,5.93
2023-02-08T12:43:18.317Z,7.00
2023-02-08T12:48:53.485Z,10.57
2023-02-08T12:54:00.624Z,8.13
2023-02-08T12:59:13.584Z,5.18
2023-02-08T13:04:24.665Z,5.88
2023-02-08T13:09:41.900Z,4.88
2023-02-08T13:14:50.584Z,5.78
2023-02-08T13:20:00.782Z,4.13
2023-02-08T13:25:09.157Z,8.57
2023-02-08T13:30:19.387Z,3.97
2023-02-08T13:35:29.320Z,4.13
2023-02-08T13:40:35.240Z,3.55
2023-02-08T13:45:43.138Z,4.57
2023-02-08T13:50:53.357Z,3.58
2023-02-08T13:56:05.702Z,3.88
2023-02-08T14:01:22.741Z,4.00
2023-02-08T14:06:31.976Z,1.90
2023-02-08T14:11:46.139Z,1.70
2023-02-08T14:17:12.576Z,4.07
2023-02-08T14:22:19.873Z,5.45
2023-02-08T14:27:28.623Z,5.15
2023-02-08T14:32:34.805Z,4.13
2023-02-08T14:37:41.023Z,1.97
2023-02-08T14:42:59.326Z,2.75
2023-02-08T14:48:19.993Z,3.47
2023-02-08T14:53:43.804Z,3.28
2023-02-08T14:58:51.350Z,3.30
2023-02-08T15:03:59.716Z,3.15
2023-02-08T15:09:07.856Z,4.03
2023-02-08T15:14:21.589Z,3.83
2023-02-08T15:19:28.848Z,4.85
2023-02-08T15:24:34.192Z,7.32
2023-02-08T15:29:44.914Z,6.32
2023-02-08T15:34:54.388Z,7.22
2023-02-08T15:40:01.246Z,6.03
2023-02-08T15:45:05.480Z,7.88
2023-02-08T15:50:18.566Z,7.55
2023-02-08T15:55:24.070Z,5.30
2023-02-08T16:00:32.790Z,7.85
2023-02-08T16:05:37.923Z,4.72
2023-02-08T16:10:47.360Z,6.38
2023-02-08T16:15:57.987Z,5.72
2023-02-08T16:21:23.654Z,9.32
2023-02-08T16:26:32.337Z,8.40
2023-02-08T16:31:36.972Z,4.75
2023-02-08T16:36:42.802Z,4.72
2023-02-08T16:42:15.804Z,6.00
2023-02-08T16:47:28.115Z,5.72
2023-02-08T16:52:32.090Z,10.82
2023-02-08T16:57:45.136Z,5.20
2023-02-08T17:02:49.772Z,5.60
2023-02-08T17:07:53.740Z,11.40
2023-02-08T17:13:17.436Z,7.60
2023-02-08T17:18:22.715Z,8.20
2023-02-08T17:23:28.030Z,9.18
2023-02-08T17:28:40.259Z,6.72
2023-02-08T17:33:44.257Z,9.52
2023-02-08T17:38:48.428Z,5.65
2023-02-08T17:43:55.183Z,6.10
2023-02-08T17:49:01.529Z,4.30
2023-02-08T17:54:06.353Z,6.53
2023-02-08T17:59:11.686Z,7.70
2023-02-08T18:04:15.682Z,6.82
2023-02-08T18:09:19.507Z,8.00
2023-02-08T18:14:24.595Z,7.13
2023-02-08T18:19:28.893Z,7.85
2023-02-08T18:24:33.253Z,5.10
2023-02-08T18:29:38.852Z,5.22
2023-02-08T18:34:42.930Z,7.45
2023-02-08T18:39:46.606Z,8.02
2023-02-08T18:44:51.649Z,5.43
2023-02-08T18:49:56.376Z,5.55
2023-02-08T18:55:00.440Z,11.18
2023-02-08T19:00:06.286Z,6.88
2023-02-08T19:05:10.152Z,6.78
2023-02-08T19:10:13.905Z,9.00
2023-02-08T19:15:19.079Z,5.82
2023-02-08T19:20:22.738Z,8.15
2023-02-08T19:25:26.474Z,15.80
2023-02-08T19:30:31.593Z,8.95
2023-02-08T19:35:38.922Z,7.72
2023-02-08T19:40:42.703Z,9.20
2023-02-08T19:45:48.159Z,10.55
2023-02-08T19:50:56.495Z,9.65
2023-02-08T19:56:01.320Z,7.38
2023-02-08T20:01:09.233Z,10.10
2023-02-08T20:06:17.682Z,9.40
2023-02-08T20:11:23.372Z,9.45
2023-02-08T20:16:31.777Z,10.65
2023-02-08T20:21:39.703Z,10.90
2023-02-08T20:26:45.230Z,13.63
2023-02-08T20:31:52.153Z,13.00
2023-02-08T20:37:11.375Z,12.10
2023-02-08T20:42:15.114Z,14.15
2023-02-08T20:47:21.825Z,10.75
2023-02-08T20:52:25.531Z,12.82
2023-02-08T20:57:30.618Z,15.55
2023-02-08T21:02:35.696Z,10.43
2023-02-08T21:07:40.454Z,11.77
2023-02-08T21:12:44.220Z,11.25
2023-02-08T21:17:49.477Z,13.68
2023-02-08T21:22:53.152Z,10.07
2023-02-08T21:27:57.525Z,9.93
2023-02-08T21:33:02.585Z,11.85
2023-02-08T21:38:06.914Z,9.48
2023-02-08T21:43:10.711Z,8.52
2023-02-08T21:48:15.795Z,8.10
2023-02-08T21:53:36.877Z,11.23
2023-02-08T21:58:40.549Z,11.20
2023-02-08T22:03:45.710Z,8.68
2023-02-08T22:08:49.355Z,13.48
2023-02-08T22:13:53.010Z,8.98
2023-02-08T22:18:57.995Z,10.25
2023-02-08T22:24:02.868Z,13.13
2023-02-08T22:29:06.591Z,11.00
2023-02-08T22:34:11.638Z,10.23
2023-02-08T22:39:15.341Z,9.88
2023-02-08T22:44:19.065Z,8.27
2023-02-08T22:49:24.083Z,8.57
2023-02-08T22:54:27.991Z,11.52
2023-02-08T22:59:31.653Z,8.88
2023-02-08T23:04:37.568Z,13.63
2023-02-08T23:09:41.204Z,12.68
2023-02-08T23:14:44.919Z,11.52
2023-02-08T23:19:52.565Z,11.18
2023-02-08T23:24:56.482Z,8.23
2023-02-08T23:30:00.151Z,8.57
2023-02-08T23:35:05.370Z,12.00
2023-02-08T23:40:10.212Z,11.07
2023-02-08T23:45:13.908Z,12.13
2023-02-08T23:50:19.060Z,9.57
2023-02-08T23:55:22.696Z,8.07
